Flight Track Log - Related Links

Times and Time Zones

All times are in EDT time to prevent confusion due to time zone crossing. See the N23742 flight status page for this flight to view local times or setup timezone preferences in your user account.

Time Position Orientation Groundspeed Altitude Reporting Facility
EDT Latitude Longitude Course Direction KTS MPH feet Rate Location/Type
Mon 03:01:26 PM 39.0500 -84.6667 237° Southwest 110 127 1,300  Level Cincinnati TRACON
Mon 03:02:32 PM 39.0333 -84.7000 237° Southwest 111 128 2,400 905 Climbing Cincinnati TRACON
Mon 03:03:32 PM 39.0167 -84.6833 142° Southeast 123 142 3,200 800 Climbing Cincinnati TRACON
Mon 03:04:32 PM 38.9833 -84.6500 142° Southeast 148 170 4,000 900 Climbing Cincinnati TRACON
Mon 03:05:32 PM 38.9500 -84.6167 142° Southeast 136 157 5,000 939 Climbing Cincinnati TRACON
Mon 03:06:27 PM 38.9225 -84.5922 145° Southeast 171 197 5,800 872 Climbing Indianapolis Center
Mon 03:07:29 PM 38.8903 -84.5575 140° Southeast 140 161 6,700 629 Climbing Indianapolis Center
Mon 03:08:31 PM 38.8594 -84.5269 142° Southeast 150 173 7,100 484 Climbing Indianapolis Center
Mon 03:09:33 PM 38.8139 -84.4792 141° Southeast 179 206 7,700 435 Climbing Indianapolis Center
Mon 03:10:35 PM 38.7786 -84.4531 150° Southeast 150 173 8,000 145 Climbing Indianapolis Center
Mon 03:11:37 PM 38.7325 -84.4303 159° South 171 197 8,000  Level Indianapolis Center
Mon 03:12:39 PM 38.6842 -84.4047 158° South 184 212 8,000 290 Level Indianapolis Center
Mon 03:13:41 PM 38.6361 -84.3767 155° Southeast 173 199 8,600 532 Climbing Indianapolis Center
Mon 03:14:43 PM 38.5964 -84.3547 157° South 158 182 9,100 242 Climbing Indianapolis Center
Mon 03:15:45 PM 38.5511 -84.3289 156° South 176 203 9,100  Level Indianapolis Center
Mon 03:16:47 PM 38.5033 -84.3028 157° South 185 213 9,100 -48 Level Indianapolis Center
Mon 03:17:49 PM 38.4542 -84.2736 155° Southeast 192 221 9,000 -48 Descending Indianapolis Center
Mon 03:18:51 PM 38.3964 -84.2431 157° South 193 222 9,000  Level Indianapolis Center
Mon 03:19:53 PM 38.3481 -84.2156 156° South 191 220 9,000  Level Indianapolis Center
Mon 03:20:55 PM 38.2986 -84.1886 157° South 191 220 9,000  Level Indianapolis Center
Mon 03:21:57 PM 38.2500 -84.1606 156° South 191 220 9,000  Level Indianapolis Center
Mon 03:22:59 PM 38.2025 -84.1308 154° Southeast 190 219 9,000  Level Indianapolis Center
Mon 03:24:01 PM 38.1544 -84.1058 158° South 187 215 9,000  Level Indianapolis Center
Mon 03:25:03 PM 38.0972 -84.0736 156° South 191 220 9,000  Level Indianapolis Center
Mon 03:26:06 PM 38.0478 -84.0456 156° South 194 223 9,000  Level Indianapolis Center
Mon 03:27:08 PM 37.9978 -84.0192 157° South 196 226 9,000  Level Indianapolis Center
Mon 03:28:10 PM 37.9481 -83.9911 156° South 197 227 9,000  Level Indianapolis Center
Mon 03:29:12 PM 37.8994 -83.9614 154° Southeast 194 223 9,000  Level Indianapolis Center
Mon 03:30:14 PM 37.8408 -83.9303 157° South 196 226 9,000  Level Indianapolis Center
Mon 03:31:16 PM 37.7917 -83.9042 157° South 193 222 9,000  Level Indianapolis Center
Mon 03:32:18 PM 37.7411 -83.8758 156° South 196 226 9,000  Level Indianapolis Center
Mon 03:33:20 PM 37.6919 -83.8492 157° South 193 222 9,000  Level Indianapolis Center
Mon 03:34:22 PM 37.6414 -83.8194 155° Southeast 198 228 9,000  Level Indianapolis Center
Mon 03:35:24 PM 37.5908 -83.7931 158° South 196 226 9,000  Level Indianapolis Center
Mon 03:36:26 PM 37.5331 -83.7600 156° South 195 224 9,000  Level Indianapolis Center
Mon 03:37:29 PM 37.4822 -83.7322 157° South 198 228 9,000  Level Indianapolis Center
Mon 03:38:31 PM 37.4314 -83.7069 158° South 197 227 9,000  Level Indianapolis Center
Mon 03:39:33 PM 37.3800 -83.6786 156° South 200 230 9,000  Level Indianapolis Center
Mon 03:40:35 PM 37.3300 -83.6506 156° South 197 227 9,000  Level Indianapolis Center
Mon 03:41:37 PM 37.2697 -83.6167 156° South 202 232 9,000  Level Indianapolis Center
Mon 03:42:39 PM 37.2169 -83.5886 157° South 204 235 9,000  Level Indianapolis Center
Mon 03:43:41 PM 37.1639 -83.5608 157° South 206 237 9,000  Level Indianapolis Center
Mon 03:44:43 PM 37.1122 -83.5317 156° South 204 235 9,000  Level Indianapolis Center
Mon 03:45:45 PM 37.0606 -83.5036 157° South 203 234 9,000  Level Indianapolis Center
Mon 03:46:47 PM 36.9997 -83.4728 158° South 202 232 9,000  Level Indianapolis Center
Mon 03:47:49 PM 36.9486 -83.4442 156° South 201 231 9,000  Level Indianapolis Center
Mon 03:48:51 PM 36.8972 -83.4167 157° South 201 231 9,000  Level Indianapolis Center
Mon 03:49:53 PM 36.8458 -83.3886 156° South 201 231 9,000  Level Indianapolis Center
Mon 03:50:55 PM 36.7944 -83.3617 157° South 201 231 9,000  Level Indianapolis Center
Mon 03:51:57 PM 36.7344 -83.3311 158° South 200 230 9,000  Level Indianapolis Center
Mon 03:52:59 PM 36.6831 -83.3022 156° South 202 232 9,000  Level Indianapolis Center
Mon 03:54:01 PM 36.6308 -83.2744 157° South 203 234 9,000  Level Indianapolis Center
Mon 03:55:04 PM 36.5797 -83.2467 156° South 202 232 9,000  Level Indianapolis Center
Mon 03:56:06 PM 36.5269 -83.2186 157° South 204 235 9,000  Level Indianapolis Center
Mon 03:57:08 PM 36.4656 -83.1869 157° South 204 235 9,000  Level Indianapolis Center
Mon 03:58:10 PM 36.4122 -83.1597 158° South 206 237 9,000  Level Indianapolis Center
Mon 03:59:12 PM 36.3617 -83.1314 156° South 201 231 9,000 64 Level Indianapolis Center
Mon 03:59:44 PM 36.3344 -83.1186 159° South 211 243 9,100 65 Climbing Atlanta Center
Mon 04:00:44 PM 36.2819 -83.0908 157° South 211 243 9,100 -50 Level Atlanta Center
Mon 04:01:44 PM 36.2317 -83.0631 156° South 211 243 9,000 -50 Descending Atlanta Center
Mon 04:02:44 PM 36.1794 -83.0356 157° South 211 243 9,000  Level Atlanta Center
Mon 04:04:00 PM 36.1226 -82.9962 151° Southeast  Level FlightAware Approximate
Mon 04:11:00 PM 35.7965 -82.8060 158° South  Level FlightAware Approximate
Mon 04:12:00 PM 35.7489 -82.7821 158° South  Level FlightAware Approximate
Mon 04:13:00 PM 35.7013 -82.7582 158° South  Level FlightAware Approximate
Mon 04:14:00 PM 35.6536 -82.7344 158° South  Level FlightAware Approximate
Mon 04:15:00 PM 35.6060 -82.7106 158° South  Level FlightAware Approximate
Mon 04:16:00 PM 35.5583 -82.6868 158° South  Level FlightAware Approximate
Mon 04:17:00 PM 35.5107 -82.6631 158° South  Level FlightAware Approximate
Mon 04:18:00 PM 35.4630 -82.6393 158° South  Level FlightAware Approximate
Mon 04:19:00 PM 35.4154 -82.6156 158° South  Level FlightAware Approximate
Mon 04:20:00 PM 35.3677 -82.5920 158° South  Level FlightAware Approximate
Mon 04:21:00 PM 35.3200 -82.5683 158° South  Level FlightAware Approximate
Mon 04:22:00 PM 35.2716 -82.5473 161° South  Level FlightAware Approximate
Mon 04:23:00 PM 35.2230 -82.5265 161° South  Level FlightAware Approximate
Mon 04:24:00 PM 35.1745 -82.5057 161° South  Level FlightAware Approximate
Mon 04:25:00 PM 35.1260 -82.4849 161° South  Level FlightAware Approximate
Mon 04:26:00 PM 35.0785 -82.4618 141° Southeast  Level FlightAware Approximate
Mon 04:27:00 PM 35.0329 -82.4344 159° South  Level FlightAware Approximate
Mon 04:28:00 PM 34.9848 -82.4121 159° South  Level FlightAware Approximate
Mon 04:29:00 PM 34.9367 -82.3899 159° South  Level FlightAware Approximate
Mon 04:30:00 PM 34.8886 -82.3678 159° South  Level FlightAware Approximate
Mon 04:31:00 PM 34.8479 -82.3500 180° South  Level Estimated
Mon 04:32:00 PM 34.8479 -82.3500 180° South  Level Estimated
Mon 04:33:00 PM 34.8479 -82.3500 180° South  Level Estimated
Mon 04:34:00 PM 34.8479 -82.3500 180° South  Level Estimated
Mon 04:35:00 PM 34.8479 -82.3500 180° South  Level Estimated
Mon 04:36:00 PM 34.8479 -82.3500 180° South  Level Estimated

Login

Don't have an account? Register now (free) for customized features, flight alerts, and more!